createdAt,value
2018-11-29T00:00:45.117Z,5.50
2018-11-29T00:03:13.638Z,5.50
2018-11-29T00:05:42.478Z,5.50
2018-11-29T00:08:10.968Z,5.50
2018-11-29T00:10:39.477Z,5.50
2018-11-29T00:13:08.203Z,5.50
2018-11-29T00:15:36.703Z,5.50
2018-11-29T00:18:05.197Z,5.50
2018-11-29T00:20:34.243Z,5.50
2018-11-29T00:23:02.753Z,5.50
2018-11-29T00:25:31.245Z,5.50
2018-11-29T00:27:59.737Z,5.50
2018-11-29T00:30:28.241Z,5.50
2018-11-29T00:32:57.050Z,5.50
2018-11-29T00:35:25.529Z,5.50
2018-11-29T00:37:54.026Z,5.50
2018-11-29T00:40:24.412Z,5.50
2018-11-29T00:42:53.273Z,5.50
2018-11-29T00:45:24.030Z,5.50
2018-11-29T00:47:52.950Z,5.50
2018-11-29T00:50:21.918Z,5.50
2018-11-29T00:52:51.065Z,5.50
2018-11-29T00:55:21.621Z,5.50
2018-11-29T00:57:50.600Z,5.50
2018-11-29T01:00:20.897Z,5.50
2018-11-29T01:02:49.707Z,5.50
2018-11-29T01:05:18.205Z,5.50
2018-11-29T01:07:46.698Z,5.50
2018-11-29T01:10:17.907Z,5.50
2018-11-29T01:12:47.114Z,5.50
2018-11-29T01:15:17.093Z,5.50
2018-11-29T01:17:46.645Z,5.50
2018-11-29T01:20:16.420Z,5.50
2018-11-29T01:22:45.189Z,5.50
2018-11-29T01:25:14.513Z,5.50
2018-11-29T01:27:44.028Z,5.50
2018-11-29T01:30:13.535Z,5.40
2018-11-29T01:32:42.570Z,5.50
2018-11-29T01:35:12.110Z,5.50
2018-11-29T01:37:40.613Z,5.50
2018-11-29T01:40:18.373Z,5.50
2018-11-29T01:42:48.138Z,5.40
2018-11-29T01:45:16.873Z,5.50
2018-11-29T01:47:45.360Z,5.50
2018-11-29T01:50:13.865Z,5.50
2018-11-29T01:52:42.367Z,5.40
2018-11-29T01:55:11.020Z,5.40
2018-11-29T01:57:39.517Z,5.40
2018-11-29T02:00:11.870Z,5.40
2018-11-29T02:02:40.409Z,5.40
2018-11-29T02:05:10.357Z,5.40
2018-11-29T02:07:38.854Z,5.40
2018-11-29T02:10:14.507Z,5.40
2018-11-29T02:12:43.142Z,5.40
2018-11-29T02:15:12.112Z,5.40
2018-11-29T02:17:40.897Z,5.40
2018-11-29T02:20:14.704Z,5.40
2018-11-29T02:22:43.382Z,5.40
2018-11-29T02:25:11.874Z,5.40
2018-11-29T02:27:40.382Z,5.40
2018-11-29T02:30:24.946Z,5.40
2018-11-29T02:32:53.433Z,5.40
2018-11-29T02:35:21.930Z,5.40
2018-11-29T02:37:50.428Z,5.40
2018-11-29T02:40:19.418Z,5.40
2018-11-29T02:42:49.132Z,5.40
2018-11-29T02:45:20.842Z,5.40
2018-11-29T02:47:49.336Z,5.40
2018-11-29T02:50:17.826Z,5.40
2018-11-29T02:52:46.325Z,5.40
2018-11-29T02:55:14.837Z,5.40
2018-11-29T02:57:43.574Z,5.40
2018-11-29T03:00:14.236Z,5.40
2018-11-29T03:02:42.758Z,5.40
2018-11-29T03:05:11.634Z,5.40
2018-11-29T03:07:40.113Z,5.40
2018-11-29T03:10:09.865Z,5.40
2018-11-29T03:12:38.584Z,5.40
2018-11-29T03:15:11.001Z,5.40
2018-11-29T03:17:39.833Z,5.40
2018-11-29T03:20:10.658Z,5.40
2018-11-29T03:22:39.174Z,5.40
2018-11-29T03:25:09.901Z,5.40
2018-11-29T03:27:38.384Z,5.40
2018-11-29T03:30:09.337Z,5.40
2018-11-29T03:32:38.837Z,5.40
2018-11-29T03:35:07.860Z,5.40
2018-11-29T03:37:36.414Z,5.40
2018-11-29T03:40:07.644Z,5.30
2018-11-29T03:42:36.126Z,5.40
2018-11-29T03:45:05.308Z,5.40
2018-11-29T03:47:33.805Z,5.40
2018-11-29T03:50:02.298Z,5.40
2018-11-29T03:52:30.788Z,5.40
2018-11-29T03:55:00.206Z,5.30
2018-11-29T03:57:28.695Z,5.40
2018-11-29T03:59:57.199Z,5.30
2018-11-29T04:02:25.699Z,5.30
2018-11-29T04:04:54.185Z,5.30
2018-11-29T04:07:22.676Z,5.30
2018-11-29T04:09:51.162Z,5.30
2018-11-29T04:12:19.653Z,5.30
2018-11-29T04:14:48.134Z,5.30
2018-11-29T04:17:16.620Z,5.30
2018-11-29T04:19:45.110Z,5.30
2018-11-29T04:22:13.605Z,5.30
2018-11-29T04:24:42.091Z,5.30
2018-11-29T04:27:10.587Z,5.30
2018-11-29T04:29:39.074Z,5.30
2018-11-29T04:32:07.577Z,5.30
2018-11-29T04:34:36.058Z,5.30
2018-11-29T04:37:04.541Z,5.30
2018-11-29T04:39:33.026Z,5.30
2018-11-29T04:42:01.514Z,5.30
2018-11-29T04:44:29.998Z,5.30
2018-11-29T04:46:58.489Z,5.30
2018-11-29T04:49:26.977Z,5.30
2018-11-29T04:51:55.458Z,5.30
2018-11-29T04:54:23.953Z,5.30
2018-11-29T04:56:52.898Z,5.30
2018-11-29T04:59:21.391Z,5.30
2018-11-29T05:01:49.898Z,5.30
2018-11-29T05:04:18.402Z,5.30
2018-11-29T05:06:46.897Z,5.30
2018-11-29T05:09:15.423Z,5.30
2018-11-29T05:11:43.901Z,5.30
2018-11-29T05:14:12.382Z,5.30
2018-11-29T05:16:40.876Z,5.30
2018-11-29T05:19:09.375Z,5.30
2018-11-29T05:21:37.868Z,5.30
2018-11-29T05:24:06.969Z,5.20
2018-11-29T05:26:35.472Z,5.30
2018-11-29T05:29:04.622Z,5.30
2018-11-29T05:31:33.113Z,5.30
2018-11-29T05:34:01.606Z,5.30
2018-11-29T05:36:30.101Z,5.30
2018-11-29T05:38:58.586Z,5.30
2018-11-29T05:41:27.073Z,5.30
2018-11-29T05:43:55.560Z,5.30
2018-11-29T05:46:24.042Z,5.30
2018-11-29T05:48:52.521Z,5.20
2018-11-29T05:51:21.005Z,5.20
2018-11-29T05:53:49.510Z,5.30
2018-11-29T05:56:18.006Z,5.30
2018-11-29T05:58:46.506Z,5.30
2018-11-29T06:01:17.029Z,5.30
2018-11-29T06:03:45.519Z,5.20
2018-11-29T06:06:14.013Z,5.20
2018-11-29T06:08:42.509Z,5.20
2018-11-29T06:11:10.993Z,5.20
2018-11-29T06:13:39.470Z,5.20
2018-11-29T06:16:07.958Z,5.20
2018-11-29T06:18:36.439Z,5.20
2018-11-29T06:21:05.798Z,5.20
2018-11-29T06:23:34.294Z,5.20
2018-11-29T06:26:03.333Z,5.20
2018-11-29T06:28:31.817Z,5.20
2018-11-29T06:31:01.177Z,5.20
2018-11-29T06:33:29.925Z,5.20
2018-11-29T06:36:02.064Z,5.20
2018-11-29T06:38:26.925Z,5.20
2018-11-29T06:40:55.601Z,5.20
2018-11-29T06:43:24.521Z,5.20
2018-11-29T06:45:53.006Z,5.20
2018-11-29T06:48:21.494Z,5.20
2018-11-29T06:50:50.030Z,5.20
2018-11-29T06:53:23.641Z,5.20
2018-11-29T06:55:52.619Z,5.20
2018-11-29T06:58:21.101Z,5.20
2018-11-29T07:00:49.598Z,5.20
2018-11-29T07:03:18.441Z,5.20
2018-11-29T07:05:46.942Z,5.20
2018-11-29T07:08:15.806Z,5.20
2018-11-29T07:10:44.298Z,5.20
2018-11-29T07:13:12.793Z,5.20
2018-11-29T07:15:41.282Z,5.20
2018-11-29T07:18:09.773Z,5.20
2018-11-29T07:20:38.303Z,5.20
2018-11-29T07:23:06.793Z,5.20
2018-11-29T07:25:35.293Z,5.20
2018-11-29T07:28:03.793Z,5.20
2018-11-29T07:30:32.278Z,5.20
2018-11-29T07:33:00.793Z,5.20
2018-11-29T07:35:29.281Z,5.20
2018-11-29T07:37:57.769Z,5.20
2018-11-29T07:40:26.445Z,5.20
2018-11-29T07:42:55.518Z,5.20
2018-11-29T07:45:24.423Z,5.20
2018-11-29T07:47:52.911Z,5.20
2018-11-29T07:50:22.580Z,5.20
2018-11-29T07:52:51.074Z,5.20
2018-11-29T07:55:21.449Z,5.20
2018-11-29T07:57:52.134Z,5.20
2018-11-29T08:00:20.641Z,5.20
2018-11-29T08:02:49.428Z,5.20
2018-11-29T08:05:18.254Z,5.20
2018-11-29T08:07:47.955Z,5.20
2018-11-29T08:10:17.370Z,5.20
2018-11-29T08:12:45.885Z,5.20
2018-11-29T08:15:15.709Z,5.20
2018-11-29T08:17:44.206Z,5.20
2018-11-29T08:20:14.005Z,5.20
2018-11-29T08:22:42.493Z,5.20
2018-11-29T08:25:11.533Z,5.20
2018-11-29T08:27:40.030Z,5.20
2018-11-29T08:30:13.685Z,5.20
2018-11-29T08:32:42.631Z,5.20
2018-11-29T08:35:13.153Z,5.20
2018-11-29T08:37:43.070Z,5.20
2018-11-29T08:40:16.003Z,5.20
2018-11-29T08:42:44.857Z,5.20
2018-11-29T08:45:13.370Z,5.20
2018-11-29T08:47:41.853Z,5.20
2018-11-29T08:50:11.722Z,5.20
2018-11-29T08:52:41.114Z,5.20
2018-11-29T08:55:10.942Z,5.20
2018-11-29T08:57:39.433Z,5.20
2018-11-29T09:00:12.298Z,5.20
2018-11-29T09:02:41.290Z,5.20
2018-11-29T09:05:10.696Z,5.20
2018-11-29T09:07:39.211Z,5.20
2018-11-29T09:10:09.490Z,5.20
2018-11-29T09:12:37.978Z,5.20
2018-11-29T09:15:08.718Z,5.20
2018-11-29T09:17:37.244Z,5.20
2018-11-29T09:20:08.548Z,5.20
2018-11-29T09:22:37.029Z,5.20
2018-11-29T09:25:07.933Z,5.20
2018-11-29T09:27:36.794Z,5.20
2018-11-29T09:30:13.618Z,5.20
2018-11-29T09:32:42.727Z,5.20
2018-11-29T09:35:11.257Z,5.20
2018-11-29T09:37:39.758Z,5.30
2018-11-29T09:40:12.349Z,5.30
2018-11-29T09:42:41.021Z,5.30
2018-11-29T09:45:14.854Z,5.30
2018-11-29T09:47:44.235Z,5.30
2018-11-29T09:50:13.955Z,5.40
2018-11-29T09:52:42.711Z,5.40
2018-11-29T09:55:12.427Z,5.40
2018-11-29T09:57:41.243Z,5.40
2018-11-29T10:00:18.554Z,5.40
2018-11-29T10:03:21.625Z,5.50
2018-11-29T10:05:50.117Z,5.50
2018-11-29T10:08:25.943Z,5.50
2018-11-29T10:10:47.589Z,5.60
2018-11-29T10:13:16.076Z,5.60
2018-11-29T10:15:44.570Z,5.60
2018-11-29T10:18:13.150Z,5.60
2018-11-29T10:20:41.606Z,5.60
2018-11-29T10:23:10.246Z,5.70
2018-11-29T10:25:40.093Z,5.70
2018-11-29T10:28:10.501Z,5.70
2018-11-29T10:30:55.086Z,5.80
2018-11-29T10:33:23.592Z,5.80
2018-11-29T10:35:58.666Z,5.90
2018-11-29T10:38:20.646Z,5.90
2018-11-29T10:40:49.132Z,5.90
2018-11-29T10:43:17.633Z,6.00
2018-11-29T10:45:46.136Z,6.10
2018-11-29T10:48:16.213Z,6.10
2018-11-29T10:50:44.720Z,6.10
2018-11-29T10:53:13.211Z,6.20
2018-11-29T10:55:41.759Z,6.20
2018-11-29T10:58:10.221Z,6.30
2018-11-29T11:00:44.277Z,6.40
2018-11-29T11:03:19.595Z,6.50
2018-11-29T11:05:49.158Z,6.70
2018-11-29T11:08:18.178Z,7.00
2018-11-29T11:10:46.680Z,7.20
2018-11-29T11:13:15.165Z,7.50
2018-11-29T11:15:43.653Z,7.80
2018-11-29T11:18:13.401Z,8.10
2018-11-29T11:20:41.850Z,8.30
2018-11-29T11:23:10.341Z,8.50
2018-11-29T11:25:38.829Z,8.60
2018-11-29T11:28:08.468Z,8.70
2018-11-29T11:30:38.854Z,8.80
2018-11-29T11:33:07.365Z,8.90
2018-11-29T11:35:35.869Z,9.00
2018-11-29T11:38:04.838Z,9.10
2018-11-29T11:40:33.333Z,9.20
2018-11-29T11:43:05.246Z,9.20
2018-11-29T11:45:30.338Z,9.30
2018-11-29T11:48:03.177Z,9.40
2018-11-29T11:50:27.445Z,9.40
2018-11-29T11:52:56.399Z,9.50
2018-11-29T11:55:29.942Z,9.50
2018-11-29T11:57:53.406Z,9.60
2018-11-29T12:00:24.541Z,9.60
2018-11-29T12:03:06.124Z,9.70
2018-11-29T12:05:34.823Z,9.80
2018-11-29T12:08:03.661Z,9.80
2018-11-29T12:10:32.178Z,9.90
2018-11-29T12:13:00.662Z,9.90
2018-11-29T12:15:29.167Z,9.90
2018-11-29T12:17:57.667Z,10.00
2018-11-29T12:20:26.159Z,10.00
2018-11-29T12:22:54.681Z,10.00
2018-11-29T12:25:23.474Z,10.10
2018-11-29T12:27:52.683Z,10.10
2018-11-29T12:30:29.358Z,10.20
2018-11-29T12:33:00.173Z,10.20
2018-11-29T12:35:28.671Z,10.30
2018-11-29T12:37:57.159Z,10.30
2018-11-29T12:40:25.671Z,10.30
2018-11-29T12:42:54.169Z,10.30
2018-11-29T12:45:22.678Z,10.40
2018-11-29T12:47:51.167Z,10.40
2018-11-29T12:50:21.979Z,10.40
2018-11-29T12:52:50.477Z,10.40
2018-11-29T12:55:20.128Z,10.40
2018-11-29T12:58:04.365Z,10.40
2018-11-29T13:00:19.243Z,10.40
2018-11-29T13:02:55.523Z,10.50
2018-11-29T13:05:24.068Z,10.40
2018-11-29T13:07:52.610Z,10.50
2018-11-29T13:10:22.430Z,10.60
2018-11-29T13:12:51.369Z,10.60
2018-11-29T13:15:28.084Z,10.60
2018-11-29T13:17:57.605Z,10.60
2018-11-29T13:20:26.098Z,10.70
2018-11-29T13:22:54.601Z,10.70
2018-11-29T13:25:24.389Z,10.80
2018-11-29T13:27:52.876Z,10.90
2018-11-29T13:30:22.147Z,10.90
2018-11-29T13:32:52.931Z,10.90
2018-11-29T13:35:24.049Z,11.00
2018-11-29T13:37:54.876Z,11.00
2018-11-29T13:40:23.862Z,11.10
2018-11-29T13:42:52.346Z,11.10
2018-11-29T13:45:21.006Z,11.20
2018-11-29T13:47:49.877Z,11.20
2018-11-29T13:50:18.698Z,11.20
2018-11-29T13:52:47.379Z,11.30
2018-11-29T13:55:17.153Z,11.30
2018-11-29T13:57:47.118Z,11.30
2018-11-29T14:00:17.630Z,11.30
2018-11-29T14:02:47.579Z,11.40
2018-11-29T14:05:16.103Z,11.40
2018-11-29T14:07:44.621Z,11.50
2018-11-29T14:10:17.522Z,11.50
2018-11-29T14:12:47.363Z,11.60
2018-11-29T14:15:19.998Z,11.60
2018-11-29T14:17:48.560Z,11.60
2018-11-29T14:20:17.032Z,11.60
2018-11-29T14:22:45.521Z,11.60
2018-11-29T14:25:15.185Z,11.60
2018-11-29T14:27:45.169Z,11.70
2018-11-29T14:30:15.984Z,11.70
2018-11-29T14:32:44.478Z,11.70
2018-11-29T14:35:12.973Z,11.80
2018-11-29T14:37:42.172Z,11.80
2018-11-29T14:40:14.454Z,11.90
2018-11-29T14:42:42.941Z,11.90
2018-11-29T14:45:16.717Z,11.90
2018-11-29T14:47:45.213Z,11.90
2018-11-29T14:50:17.211Z,11.90
2018-11-29T14:52:45.961Z,11.90
2018-11-29T14:55:14.850Z,11.90
2018-11-29T14:57:43.337Z,11.90
2018-11-29T15:00:12.881Z,11.90
2018-11-29T15:02:41.698Z,12.00
2018-11-29T15:05:18.206Z,12.00
2018-11-29T15:07:46.930Z,12.00
2018-11-29T15:10:15.408Z,12.10
2018-11-29T15:12:43.893Z,12.10
2018-11-29T15:15:13.152Z,12.10
2018-11-29T15:17:42.704Z,12.20
2018-11-29T15:20:21.958Z,12.20
2018-11-29T15:22:50.465Z,12.30
2018-11-29T15:25:18.978Z,12.30
2018-11-29T15:27:47.486Z,12.40
2018-11-29T15:30:19.172Z,12.40
2018-11-29T15:32:47.662Z,12.40
2018-11-29T15:35:16.197Z,12.40
2018-11-29T15:37:44.693Z,12.40
2018-11-29T15:40:16.252Z,12.40
2018-11-29T15:42:45.045Z,12.40
2018-11-29T15:45:15.389Z,12.40
2018-11-29T15:47:43.831Z,12.50
2018-11-29T15:50:14.355Z,12.50
2018-11-29T15:52:42.863Z,12.50
2018-11-29T15:55:16.403Z,12.60
2018-11-29T15:57:45.745Z,12.60
2018-11-29T16:00:18.458Z,12.60
2018-11-29T16:02:47.835Z,12.60
2018-11-29T16:05:16.328Z,12.60
2018-11-29T16:07:44.820Z,12.60
2018-11-29T16:10:14.405Z,12.70
2018-11-29T16:12:42.922Z,12.70
2018-11-29T16:15:14.263Z,12.70
2018-11-29T16:17:43.223Z,12.80
2018-11-29T16:20:13.271Z,12.80
2018-11-29T16:22:42.166Z,12.80
2018-11-29T16:25:11.541Z,12.80
2018-11-29T16:27:40.193Z,12.80
2018-11-29T16:30:21.102Z,12.90
2018-11-29T16:32:49.751Z,12.90
2018-11-29T16:35:18.129Z,12.80
2018-11-29T16:37:46.921Z,12.80
2018-11-29T16:40:15.414Z,12.80
2018-11-29T16:42:43.916Z,12.90
2018-11-29T16:45:13.618Z,13.00
2018-11-29T16:47:42.810Z,13.00
2018-11-29T16:50:13.645Z,13.10
2018-11-29T16:52:42.149Z,13.00
2018-11-29T16:55:11.718Z,13.00
2018-11-29T16:57:42.697Z,13.00
2018-11-29T17:00:14.057Z,13.00
2018-11-29T17:02:42.549Z,13.10
2018-11-29T17:05:13.488Z,13.10
2018-11-29T17:07:42.309Z,13.10
2018-11-29T17:10:12.354Z,13.10
2018-11-29T17:12:41.663Z,13.00
2018-11-29T17:15:12.263Z,12.90
2018-11-29T17:17:40.773Z,12.90
2018-11-29T17:20:12.709Z,12.80
2018-11-29T17:22:41.206Z,12.80
2018-11-29T17:25:10.905Z,12.70
2018-11-29T17:27:39.786Z,12.60
2018-11-29T17:30:22.322Z,12.50
2018-11-29T17:32:55.107Z,12.50
2018-11-29T17:35:23.610Z,12.40
2018-11-29T17:37:53.079Z,12.30
2018-11-29T17:40:22.230Z,12.30
2018-11-29T17:42:52.162Z,12.20
2018-11-29T17:45:24.674Z,12.20
2018-11-29T17:47:55.597Z,12.20
2018-11-29T17:50:30.644Z,12.10
2018-11-29T17:52:59.141Z,12.10
2018-11-29T17:55:27.661Z,12.00
2018-11-29T17:57:56.162Z,12.00
2018-11-29T18:00:27.270Z,11.90
2018-11-29T18:02:55.772Z,11.90
2018-11-29T18:05:24.305Z,11.90
2018-11-29T18:07:52.799Z,11.90
2018-11-29T18:10:23.500Z,11.80
2018-11-29T18:12:57.410Z,11.70
2018-11-29T18:15:27.627Z,11.70
2018-11-29T18:17:56.130Z,11.70
2018-11-29T18:20:24.640Z,11.70
2018-11-29T18:22:53.142Z,11.60
2018-11-29T18:25:21.664Z,11.60
2018-11-29T18:27:51.341Z,11.60
2018-11-29T18:30:20.894Z,11.60
2018-11-29T18:32:49.635Z,11.60
2018-11-29T18:35:18.157Z,11.50
2018-11-29T18:37:46.789Z,11.50
2018-11-29T18:40:16.549Z,11.50
2018-11-29T18:42:46.680Z,11.50
2018-11-29T18:45:17.261Z,11.50
2018-11-29T18:47:46.975Z,11.50
2018-11-29T18:50:16.594Z,11.50
2018-11-29T18:52:45.089Z,11.50
2018-11-29T18:55:13.590Z,11.50
2018-11-29T18:57:42.657Z,11.50
2018-11-29T19:00:15.845Z,11.50
2018-11-29T19:02:44.356Z,11.50
2018-11-29T19:05:12.865Z,11.50
2018-11-29T19:07:41.768Z,11.50
2018-11-29T19:10:11.691Z,11.50
2018-11-29T19:13:12.188Z,11.40
2018-11-29T19:15:41.035Z,11.50
2018-11-29T19:18:10.743Z,11.50
2018-11-29T19:20:39.067Z,11.40
2018-11-29T19:23:07.813Z,11.40
2018-11-29T19:25:36.786Z,11.40
2018-11-29T19:28:06.203Z,11.40
2018-11-29T19:30:34.903Z,11.40
2018-11-29T19:33:10.022Z,11.40
2018-11-29T19:35:38.525Z,11.40
2018-11-29T19:38:07.150Z,11.40
2018-11-29T19:40:35.660Z,11.40
2018-11-29T19:43:04.458Z,11.40
2018-11-29T19:45:32.954Z,11.40
2018-11-29T19:48:01.490Z,11.40
2018-11-29T19:50:30.006Z,11.40
2018-11-29T19:52:59.824Z,11.40
2018-11-29T19:55:30.954Z,11.40
2018-11-29T19:57:59.502Z,11.40
2018-11-29T20:00:28.593Z,11.40
2018-11-29T20:02:57.614Z,11.30
2018-11-29T20:05:26.131Z,11.40
2018-11-29T20:07:54.994Z,11.30
2018-11-29T20:10:23.877Z,11.30
2018-11-29T20:12:59.254Z,11.30
2018-11-29T20:15:27.872Z,11.30
2018-11-29T20:17:56.800Z,11.30
2018-11-29T20:20:26.334Z,11.30
2018-11-29T20:22:54.993Z,11.20
2018-11-29T20:25:25.018Z,11.30
2018-11-29T20:27:53.811Z,11.20
2018-11-29T20:30:23.278Z,11.20
2018-11-29T20:32:52.898Z,11.20
2018-11-29T20:35:21.391Z,11.20
2018-11-29T20:37:51.193Z,11.20
2018-11-29T20:40:22.918Z,11.20
2018-11-29T20:42:52.600Z,11.10
2018-11-29T20:45:23.698Z,11.10
2018-11-29T20:47:52.502Z,11.10
2018-11-29T20:50:22.608Z,11.10
2018-11-29T20:52:52.241Z,11.10
2018-11-29T20:55:23.861Z,11.10
2018-11-29T20:57:52.556Z,11.10
2018-11-29T21:00:21.355Z,11.10
2018-11-29T21:02:49.853Z,11.10
2018-11-29T21:05:19.949Z,11.00
2018-11-29T21:07:52.878Z,11.00
2018-11-29T21:10:22.843Z,11.00
2018-11-29T21:12:51.348Z,11.00
2018-11-29T21:15:19.910Z,10.90
2018-11-29T21:17:48.402Z,10.90
2018-11-29T21:20:19.129Z,10.90
2018-11-29T21:22:49.337Z,10.90
2018-11-29T21:25:22.629Z,10.90
2018-11-29T21:27:51.346Z,10.80
2018-11-29T21:30:19.856Z,10.80
2018-11-29T21:32:49.302Z,10.80
2018-11-29T21:35:19.369Z,10.80
2018-11-29T21:37:47.862Z,10.70
2018-11-29T21:40:28.417Z,10.70
2018-11-29T21:42:56.916Z,10.70
2018-11-29T21:45:25.410Z,10.70
2018-11-29T21:47:53.937Z,10.70
2018-11-29T21:50:22.442Z,10.60
2018-11-29T21:52:50.938Z,10.60
2018-11-29T21:55:19.446Z,10.60
2018-11-29T21:57:47.949Z,10.60
2018-11-29T22:00:17.805Z,10.60
2018-11-29T22:02:49.989Z,10.60
2018-11-29T22:05:18.490Z,10.60
2018-11-29T22:07:46.985Z,10.50
2018-11-29T22:10:15.494Z,10.50
2018-11-29T22:12:43.999Z,10.50
2018-11-29T22:15:13.097Z,10.50
2018-11-29T22:18:46.534Z,10.40
2018-11-29T22:21:15.029Z,10.40
2018-11-29T22:23:43.525Z,10.40
2018-11-29T22:26:14.317Z,10.40
2018-11-29T22:28:43.127Z,10.40
2018-11-29T22:31:11.626Z,10.30
2018-11-29T22:33:40.117Z,10.30
2018-11-29T22:36:08.610Z,10.30
2018-11-29T22:38:37.113Z,10.30
2018-11-29T22:41:06.141Z,10.20
2018-11-29T22:43:34.651Z,10.20
2018-11-29T22:46:03.165Z,10.20
2018-11-29T22:48:31.791Z,10.20
2018-11-29T22:51:00.287Z,10.20
2018-11-29T22:53:29.105Z,10.10
2018-11-29T22:55:57.955Z,10.10
2018-11-29T22:58:26.474Z,10.10
2018-11-29T23:00:54.965Z,10.10
2018-11-29T23:03:23.503Z,10.10
2018-11-29T23:05:52.003Z,10.00
2018-11-29T23:08:20.494Z,10.00
2018-11-29T23:10:49.007Z,10.00
2018-11-29T23:13:17.513Z,10.00
2018-11-29T23:15:46.021Z,10.00
2018-11-29T23:18:14.513Z,9.90
2018-11-29T23:20:43.020Z,9.90
2018-11-29T23:23:11.518Z,9.90
2018-11-29T23:25:40.029Z,9.90
2018-11-29T23:28:08.527Z,9.90
2018-11-29T23:30:37.062Z,9.90
2018-11-29T23:33:05.589Z,9.80
2018-11-29T23:35:34.449Z,9.80
2018-11-29T23:38:02.942Z,9.80
2018-11-29T23:40:31.825Z,9.80
2018-11-29T23:43:00.313Z,9.80
2018-11-29T23:45:28.815Z,9.80
2018-11-29T23:47:57.309Z,9.80
2018-11-29T23:50:25.800Z,9.70
2018-11-29T23:52:54.293Z,9.70
2018-11-29T23:55:23.070Z,9.70
2018-11-29T23:57:51.677Z,9.70
